createdAt,value
2019-02-27T00:02:31.539Z,44.63
2019-02-27T00:05:13.831Z,45.20
2019-02-27T00:08:02.915Z,47.67
2019-02-27T00:10:39.299Z,45.12
2019-02-27T00:13:15.649Z,50.78
2019-02-27T00:15:51.505Z,59.83
2019-02-27T00:18:26.868Z,53.48
2019-02-27T00:21:10.999Z,50.98
2019-02-27T00:23:56.696Z,46.92
2019-02-27T00:26:39.546Z,45.98
2019-02-27T00:29:14.358Z,45.48
2019-02-27T00:31:49.707Z,45.80
2019-02-27T00:34:32.999Z,50.05
2019-02-27T00:37:08.968Z,44.38
2019-02-27T00:39:44.695Z,45.03
2019-02-27T00:42:23.017Z,41.25
2019-02-27T00:44:58.352Z,46.53
2019-02-27T00:47:40.102Z,45.12
2019-02-27T00:50:23.934Z,46.35
2019-02-27T00:52:59.727Z,43.80
2019-02-27T00:55:41.432Z,43.58
2019-02-27T00:58:26.838Z,45.30
2019-02-27T01:01:01.352Z,44.03
2019-02-27T01:03:43.776Z,44.83
2019-02-27T01:06:19.139Z,46.08
2019-02-27T01:09:01.034Z,42.62
2019-02-27T01:11:36.582Z,43.52
2019-02-27T01:14:18.438Z,45.75
2019-02-27T01:16:53.720Z,46.55
2019-02-27T01:19:29.790Z,42.27
2019-02-27T01:22:05.884Z,43.05
2019-02-27T01:24:41.733Z,44.73
2019-02-27T01:27:23.666Z,46.75
2019-02-27T01:30:06.219Z,49.20
2019-02-27T01:32:47.963Z,40.58
2019-02-27T01:35:23.076Z,40.95
2019-02-27T01:37:59.240Z,43.15
2019-02-27T01:40:35.031Z,35.90
2019-02-27T01:43:10.211Z,31.93
2019-02-27T01:45:45.498Z,38.48
2019-02-27T01:48:21.384Z,37.88
2019-02-27T01:51:04.122Z,28.02
2019-02-27T01:53:40.690Z,29.90
2019-02-27T01:56:23.017Z,28.83
2019-02-27T01:59:04.683Z,32.05
2019-02-27T02:01:33.845Z,35.60
2019-02-27T02:04:09.830Z,26.50
2019-02-27T02:06:45.645Z,31.45
2019-02-27T02:09:41.115Z,34.75
2019-02-27T02:12:24.481Z,30.60
2019-02-27T02:15:17.090Z,34.50
2019-02-27T02:18:16.345Z,33.33
2019-02-27T02:21:06.247Z,30.62
2019-02-27T02:24:22.588Z,30.80
2019-02-27T02:27:08.275Z,32.73
2019-02-27T02:29:53.738Z,33.05
2019-02-27T02:32:52.551Z,32.40
2019-02-27T02:35:42.489Z,34.00
2019-02-27T02:38:37.761Z,33.08
2019-02-27T02:41:38.593Z,34.18
2019-02-27T02:44:40.103Z,28.73
2019-02-27T02:47:25.041Z,30.27
2019-02-27T02:50:27.044Z,29.23
2019-02-27T02:53:24.841Z,26.62
2019-02-27T02:56:23.716Z,25.12
2019-02-27T02:59:46.430Z,28.95
2019-02-27T03:02:51.039Z,26.42
2019-02-27T03:06:10.164Z,22.00
2019-02-27T03:09:22.153Z,26.95
2019-02-27T03:12:05.698Z,25.57
2019-02-27T03:15:05.102Z,22.00
2019-02-27T03:18:06.575Z,21.97
2019-02-27T03:21:27.519Z,23.18
2019-02-27T03:24:32.325Z,19.48
2019-02-27T03:27:30.885Z,20.05
2019-02-27T03:30:47.833Z,21.35
2019-02-27T03:34:05.878Z,21.35
2019-02-27T03:36:52.996Z,22.45
2019-02-27T03:40:21.132Z,21.40
2019-02-27T03:43:17.002Z,23.35
2019-02-27T03:46:30.186Z,24.80
2019-02-27T03:49:44.236Z,18.10
2019-02-27T03:52:47.042Z,26.15
2019-02-27T03:55:44.146Z,23.40
2019-02-27T03:59:06.233Z,20.65
2019-02-27T04:02:09.509Z,23.52
2019-02-27T04:05:07.132Z,19.10
2019-02-27T04:07:57.046Z,20.27
2019-02-27T04:10:39.386Z,19.45
2019-02-27T04:13:26.835Z,21.48
2019-02-27T04:16:05.481Z,25.57
2019-02-27T04:18:46.625Z,18.48
2019-02-27T04:21:25.378Z,21.37
2019-02-27T04:23:59.649Z,16.82
2019-02-27T04:26:41.490Z,16.75
2019-02-27T04:29:19.428Z,17.92
2019-02-27T04:31:55.375Z,15.70
2019-02-27T04:34:37.480Z,17.00
2019-02-27T04:37:13.113Z,16.37
2019-02-27T04:39:54.975Z,17.27
2019-02-27T04:42:31.156Z,18.57
2019-02-27T04:45:07.034Z,17.02
2019-02-27T04:47:42.525Z,21.65
2019-02-27T04:50:24.740Z,21.07
2019-02-27T04:53:00.928Z,17.67
2019-02-27T04:55:42.914Z,18.75
2019-02-27T04:58:18.551Z,17.73
2019-02-27T05:01:07.189Z,17.98
2019-02-27T05:03:42.747Z,16.82
2019-02-27T05:06:25.289Z,22.25
2019-02-27T05:09:01.113Z,17.98
2019-02-27T05:11:47.590Z,18.52
2019-02-27T05:14:28.055Z,18.85
2019-02-27T05:17:10.846Z,14.30
2019-02-27T05:19:52.919Z,21.27
2019-02-27T05:22:28.931Z,16.67
2019-02-27T05:25:14.554Z,20.20
2019-02-27T05:27:50.169Z,18.15
2019-02-27T05:30:32.197Z,20.45
2019-02-27T05:33:02.065Z,20.95
2019-02-27T05:35:38.677Z,15.78
2019-02-27T05:38:07.836Z,28.52
2019-02-27T05:40:43.544Z,25.20
2019-02-27T05:43:13.902Z,26.52
2019-02-27T05:45:49.893Z,21.93
2019-02-27T05:48:25.464Z,31.37
2019-02-27T05:51:00.888Z,31.60
2019-02-27T05:53:30.067Z,36.10
2019-02-27T05:56:05.584Z,21.42
2019-02-27T05:58:34.750Z,27.15
2019-02-27T06:01:16.711Z,29.23
2019-02-27T06:03:45.896Z,36.90
2019-02-27T06:06:21.745Z,26.48
2019-02-27T06:08:57.665Z,27.95
2019-02-27T06:11:27.130Z,30.17
2019-02-27T06:13:57.714Z,30.62
2019-02-27T06:16:37.020Z,26.52
2019-02-27T06:19:05.177Z,27.98
2019-02-27T06:21:34.354Z,22.37
2019-02-27T06:24:12.436Z,28.95
2019-02-27T06:26:54.150Z,28.27
2019-02-27T06:29:35.892Z,24.87
2019-02-27T06:32:12.353Z,24.90
2019-02-27T06:34:48.337Z,18.42
2019-02-27T06:37:24.533Z,28.17
2019-02-27T06:40:08.023Z,24.02
2019-02-27T06:42:57.076Z,32.88
2019-02-27T06:45:38.722Z,24.18
2019-02-27T06:48:14.372Z,29.92
2019-02-27T06:50:58.324Z,34.48
2019-02-27T06:53:27.751Z,32.78
2019-02-27T06:55:56.947Z,28.47
2019-02-27T06:58:32.724Z,31.60
2019-02-27T07:01:09.694Z,39.60
2019-02-27T07:03:45.392Z,29.72
2019-02-27T07:06:26.873Z,33.08
2019-02-27T07:09:02.789Z,28.15
2019-02-27T07:11:38.497Z,28.47
2019-02-27T07:14:14.187Z,27.62
2019-02-27T07:16:49.541Z,26.62
2019-02-27T07:19:25.222Z,24.65
2019-02-27T07:22:09.329Z,29.48
2019-02-27T07:24:44.910Z,23.35
2019-02-27T07:27:20.549Z,26.60
2019-02-27T07:30:04.855Z,26.87
2019-02-27T07:32:46.565Z,26.77
2019-02-27T07:35:29.924Z,30.45
2019-02-27T07:38:21.396Z,25.15
2019-02-27T07:40:55.879Z,25.68
2019-02-27T07:43:38.062Z,24.65
2019-02-27T07:46:22.327Z,26.40
2019-02-27T07:48:57.784Z,24.12
2019-02-27T07:51:40.556Z,18.12
2019-02-27T07:54:22.329Z,27.90
2019-02-27T07:56:58.315Z,23.07
2019-02-27T07:59:37.941Z,29.87
2019-02-27T08:02:25.343Z,25.40
2019-02-27T08:05:00.744Z,24.95
2019-02-27T08:07:29.922Z,29.55
2019-02-27T08:10:00.744Z,33.50
2019-02-27T08:12:36.322Z,34.20
2019-02-27T08:15:15.195Z,33.02
2019-02-27T08:17:51.469Z,35.33
2019-02-27T08:20:26.967Z,33.18
2019-02-27T08:23:09.390Z,27.70
2019-02-27T08:25:51.981Z,28.55
2019-02-27T08:28:27.906Z,28.77
2019-02-27T08:31:09.964Z,24.63
2019-02-27T08:33:39.253Z,29.00
2019-02-27T08:36:21.582Z,26.52
2019-02-27T08:39:03.864Z,28.05
2019-02-27T08:41:46.155Z,18.73
2019-02-27T08:44:15.340Z,20.45
2019-02-27T08:46:50.574Z,19.42
2019-02-27T08:49:26.568Z,25.02
2019-02-27T08:52:02.670Z,24.52
2019-02-27T08:54:33.042Z,24.82
2019-02-27T08:57:08.603Z,24.47
2019-02-27T08:59:39.819Z,18.95
2019-02-27T09:02:24.154Z,14.55
2019-02-27T09:05:05.520Z,22.98
2019-02-27T09:07:36.455Z,22.00
2019-02-27T09:10:17.287Z,23.87
2019-02-27T09:12:53.219Z,21.73
2019-02-27T09:15:22.392Z,26.95
2019-02-27T09:17:59.133Z,22.55
2019-02-27T09:20:34.951Z,22.93
2019-02-27T09:23:04.131Z,27.13
2019-02-27T09:25:42.214Z,24.77
2019-02-27T09:28:11.146Z,27.77
2019-02-27T09:30:40.333Z,31.37
2019-02-27T09:33:17.066Z,27.35
2019-02-27T09:35:53.507Z,30.12
2019-02-27T09:38:35.356Z,33.08
2019-02-27T09:41:18.098Z,32.48
2019-02-27T09:43:54.009Z,32.30
2019-02-27T09:46:35.980Z,40.60
2019-02-27T09:49:07.079Z,28.30
2019-02-27T09:51:49.665Z,35.58
2019-02-27T09:54:24.975Z,36.00
2019-02-27T09:57:07.070Z,31.37
2019-02-27T09:59:42.435Z,35.73
2019-02-27T10:02:18.464Z,39.85
2019-02-27T10:05:14.823Z,32.50
2019-02-27T10:07:57.575Z,33.92
2019-02-27T10:10:33.824Z,38.85
2019-02-27T10:13:09.807Z,39.08
2019-02-27T10:15:52.370Z,38.25
2019-02-27T10:18:22.214Z,42.85
2019-02-27T10:21:04.409Z,38.80
2019-02-27T10:23:40.620Z,46.23
2019-02-27T10:26:22.726Z,50.65
2019-02-27T10:28:58.807Z,42.80
2019-02-27T10:31:41.357Z,44.80
2019-02-27T10:34:18.286Z,42.80
2019-02-27T10:37:00.114Z,43.28
2019-02-27T10:39:42.967Z,42.30
2019-02-27T10:42:18.663Z,42.17
2019-02-27T10:45:01.206Z,48.52
2019-02-27T10:47:39.801Z,49.93
2019-02-27T10:50:26.204Z,43.00
2019-02-27T10:53:08.251Z,46.02
2019-02-27T10:55:46.398Z,40.92
2019-02-27T10:58:20.507Z,36.48
2019-02-27T11:00:58.081Z,46.95
2019-02-27T11:03:34.167Z,40.05
2019-02-27T11:06:16.869Z,51.18
2019-02-27T11:08:52.987Z,48.15
2019-02-27T11:11:35.019Z,41.75
2019-02-27T11:14:16.834Z,48.58
2019-02-27T11:16:52.077Z,49.00
2019-02-27T11:19:28.189Z,50.33
2019-02-27T11:21:58.415Z,52.75
2019-02-27T11:24:41.510Z,52.95
2019-02-27T11:27:16.964Z,49.60
2019-02-27T11:29:52.714Z,47.95
2019-02-27T11:32:34.632Z,53.78
2019-02-27T11:35:03.814Z,47.15
2019-02-27T11:37:32.998Z,51.58
2019-02-27T11:40:08.828Z,51.75
2019-02-27T11:42:44.780Z,44.25
2019-02-27T11:45:24.977Z,48.33
2019-02-27T11:48:06.929Z,49.33
2019-02-27T11:50:56.443Z,48.52
2019-02-27T11:53:35.683Z,49.03
2019-02-27T11:56:09.173Z,48.30
2019-02-27T11:58:51.097Z,46.15
2019-02-27T12:01:26.889Z,49.15
2019-02-27T12:04:02.325Z,43.42
2019-02-27T12:06:41.365Z,37.13
2019-02-27T12:09:21.614Z,37.00
2019-02-27T12:11:56.894Z,43.63
2019-02-27T12:14:39.114Z,43.65
2019-02-27T12:17:15.336Z,41.58
2019-02-27T12:19:57.634Z,38.02
2019-02-27T12:22:26.826Z,42.75
2019-02-27T12:25:02.324Z,37.67
2019-02-27T12:27:49.147Z,35.75
2019-02-27T12:30:26.281Z,37.90
2019-02-27T12:33:01.612Z,43.52
2019-02-27T12:35:44.943Z,40.38
2019-02-27T12:38:19.591Z,44.38
2019-02-27T12:40:58.215Z,30.50
2019-02-27T12:43:39.765Z,43.90
2019-02-27T12:46:15.091Z,39.18
2019-02-27T12:48:50.472Z,41.48
2019-02-27T12:51:26.551Z,39.80
2019-02-27T12:54:08.871Z,40.00
2019-02-27T12:56:44.553Z,44.58
2019-02-27T12:59:26.182Z,36.60
2019-02-27T13:02:08.055Z,40.63
2019-02-27T13:04:39.370Z,41.00
2019-02-27T13:07:14.664Z,45.35
2019-02-27T13:09:58.731Z,45.33
2019-02-27T13:12:34.911Z,41.15
2019-02-27T13:15:13.337Z,40.75
2019-02-27T13:17:49.356Z,45.83
2019-02-27T13:20:34.373Z,43.30
2019-02-27T13:23:05.230Z,43.00
2019-02-27T13:25:40.861Z,41.08
2019-02-27T13:28:16.698Z,39.00
2019-02-27T13:30:58.436Z,41.28
2019-02-27T13:33:35.378Z,40.10
2019-02-27T13:36:18.038Z,38.65
2019-02-27T13:38:53.722Z,39.58
2019-02-27T13:41:35.961Z,38.13
2019-02-27T13:44:11.273Z,37.83
2019-02-27T13:46:47.192Z,36.60
2019-02-27T13:49:28.922Z,36.65
2019-02-27T13:51:58.109Z,33.45
2019-02-27T13:54:39.975Z,32.28
2019-02-27T13:57:15.649Z,34.53
2019-02-27T13:59:51.451Z,29.98
2019-02-27T14:02:20.675Z,30.75
2019-02-27T14:05:02.542Z,24.20
2019-02-27T14:07:37.799Z,26.35
2019-02-27T14:10:30.654Z,29.55
2019-02-27T14:12:59.835Z,31.60
2019-02-27T14:15:42.422Z,29.67
2019-02-27T14:18:18.231Z,27.67
2019-02-27T14:20:54.200Z,28.32
2019-02-27T14:23:36.984Z,29.35
2019-02-27T14:26:12.591Z,29.70
2019-02-27T14:28:48.196Z,25.05
2019-02-27T14:31:30.667Z,29.50
2019-02-27T14:34:06.431Z,28.38
2019-02-27T14:36:49.099Z,30.77
2019-02-27T14:39:18.317Z,25.85
2019-02-27T14:42:00.697Z,26.80
2019-02-27T14:44:36.917Z,28.83
2019-02-27T14:47:13.157Z,24.82
2019-02-27T14:49:54.644Z,21.65
2019-02-27T14:52:23.847Z,27.05
2019-02-27T14:55:06.553Z,24.57
2019-02-27T14:57:51.035Z,27.05
2019-02-27T15:03:11.624Z,22.95
2019-02-27T15:05:47.504Z,17.65
2019-02-27T15:08:25.195Z,23.67
2019-02-27T15:11:00.490Z,25.55
2019-02-27T15:13:42.055Z,20.10
2019-02-27T15:16:17.875Z,21.65
2019-02-27T15:18:47.074Z,22.42
2019-02-27T15:21:28.909Z,23.65
2019-02-27T15:24:01.354Z,23.35
2019-02-27T15:26:35.105Z,21.15
2019-02-27T15:29:05.691Z,19.62
2019-02-27T15:31:35.216Z,21.73
2019-02-27T15:34:12.287Z,23.27
2019-02-27T15:36:42.023Z,22.35
2019-02-27T15:39:21.100Z,24.47
2019-02-27T15:41:48.763Z,19.67
2019-02-27T15:44:24.110Z,20.50
2019-02-27T15:46:59.445Z,25.62
2019-02-27T15:49:35.572Z,20.30
2019-02-27T15:52:06.855Z,18.90
2019-02-27T15:54:42.602Z,22.37
2019-02-27T15:57:11.826Z,36.85
2019-02-27T15:59:53.750Z,50.95
2019-02-27T16:02:29.991Z,32.45
2019-02-27T16:05:06.271Z,44.53
2019-02-27T16:07:49.446Z,37.45
2019-02-27T16:10:34.087Z,64.70
2019-02-27T16:13:16.601Z,36.93
2019-02-27T16:15:53.472Z,35.75
2019-02-27T16:18:37.087Z,29.72
2019-02-27T16:21:20.937Z,26.42
2019-02-27T16:23:56.241Z,25.60
2019-02-27T16:26:31.999Z,25.52
2019-02-27T16:29:13.337Z,21.15
2019-02-27T16:31:55.592Z,23.27
2019-02-27T16:34:33.248Z,22.67
2019-02-27T16:37:21.930Z,23.62
2019-02-27T16:39:55.250Z,27.00
2019-02-27T16:42:31.788Z,26.68
2019-02-27T16:45:15.243Z,29.65
2019-02-27T16:47:54.035Z,24.98
2019-02-27T16:50:32.151Z,27.15
2019-02-27T16:53:08.377Z,28.70
2019-02-27T16:55:56.785Z,30.52
2019-02-27T16:58:33.091Z,31.87
2019-02-27T17:01:16.059Z,38.42
2019-02-27T17:03:52.579Z,34.03
2019-02-27T17:06:28.703Z,33.23
2019-02-27T17:09:07.159Z,29.70
2019-02-27T17:11:48.992Z,36.13
2019-02-27T17:14:30.603Z,32.75
2019-02-27T17:17:06.536Z,29.25
2019-02-27T17:19:48.465Z,29.90
2019-02-27T17:22:17.708Z,27.85
2019-02-27T17:24:59.321Z,27.73
2019-02-27T17:27:28.525Z,28.57
2019-02-27T17:30:11.703Z,30.50
2019-02-27T17:32:53.648Z,30.57
2019-02-27T17:35:23.613Z,30.37
2019-02-27T17:37:59.630Z,31.77
2019-02-27T17:40:37.582Z,28.50
2019-02-27T17:43:12.974Z,25.32
2019-02-27T17:45:54.558Z,30.65
2019-02-27T17:48:36.968Z,30.75
2019-02-27T17:51:12.556Z,28.40
2019-02-27T17:53:57.907Z,24.43
2019-02-27T17:56:33.338Z,31.00
2019-02-27T17:59:16.130Z,25.50
2019-02-27T18:01:51.863Z,25.85
2019-02-27T18:04:33.593Z,25.77
2019-02-27T18:07:15.870Z,20.70
2019-02-27T18:09:52.130Z,28.73
2019-02-27T18:12:30.042Z,30.27
2019-02-27T18:15:11.482Z,27.98
2019-02-27T18:17:54.177Z,34.48
2019-02-27T18:20:32.084Z,31.35
2019-02-27T18:23:07.994Z,28.67
2019-02-27T18:25:41.048Z,28.32
2019-02-27T18:28:21.969Z,22.50
2019-02-27T18:30:58.189Z,23.20
2019-02-27T18:33:33.959Z,21.52
2019-02-27T18:36:09.324Z,28.57
2019-02-27T18:38:51.788Z,29.25
2019-02-27T18:41:28.091Z,32.03
2019-02-27T18:44:11.403Z,33.50
2019-02-27T18:46:47.220Z,27.62
2019-02-27T18:49:24.125Z,30.15
2019-02-27T18:52:07.412Z,29.20
2019-02-27T18:54:51.051Z,30.05
2019-02-27T18:57:27.374Z,38.00
2019-02-27T19:00:12.135Z,40.67
2019-02-27T19:02:54.641Z,36.33
2019-02-27T19:05:31.934Z,56.92
2019-02-27T19:08:11.943Z,33.90
2019-02-27T19:10:54.879Z,30.57
2019-02-27T19:13:32.354Z,32.43
2019-02-27T19:16:17.430Z,26.07
2019-02-27T19:18:53.372Z,39.18
2019-02-27T19:21:36.564Z,35.95
2019-02-27T19:24:13.493Z,35.28
2019-02-27T19:26:56.190Z,27.85
2019-02-27T19:29:39.318Z,35.38
2019-02-27T19:32:19.123Z,29.98
2019-02-27T19:35:01.717Z,30.92
2019-02-27T19:37:39.136Z,31.48
2019-02-27T19:40:30.462Z,33.63
2019-02-27T19:43:18.136Z,31.70
2019-02-27T19:46:01.663Z,31.50
2019-02-27T19:48:37.622Z,24.32
2019-02-27T19:51:21.008Z,32.53
2019-02-27T19:53:57.257Z,31.50
2019-02-27T19:56:40.944Z,35.03
2019-02-27T19:59:25.039Z,28.67
2019-02-27T20:02:08.485Z,32.28
2019-02-27T20:04:45.995Z,27.77
2019-02-27T20:07:22.167Z,28.80
2019-02-27T20:10:04.412Z,33.63
2019-02-27T20:12:40.088Z,32.08
2019-02-27T20:15:31.120Z,32.35
2019-02-27T20:18:00.909Z,30.52
2019-02-27T20:20:30.799Z,30.20
2019-02-27T20:23:07.105Z,30.72
2019-02-27T20:25:44.407Z,28.77
2019-02-27T20:28:29.019Z,26.30
2019-02-27T20:31:05.693Z,32.50
2019-02-27T20:33:47.758Z,20.40
2019-02-27T20:36:32.983Z,23.35
2019-02-27T20:39:14.528Z,22.25
2019-02-27T20:41:56.980Z,26.35
2019-02-27T20:44:34.077Z,21.23
2019-02-27T20:47:17.740Z,21.73
2019-02-27T20:49:47.992Z,25.52
2019-02-27T20:52:23.929Z,27.67
2019-02-27T20:54:53.370Z,26.45
2019-02-27T20:57:36.030Z,24.05
2019-02-27T21:00:22.704Z,31.25
2019-02-27T21:03:05.224Z,20.85
2019-02-27T21:05:42.006Z,22.98
2019-02-27T21:08:18.965Z,26.40
2019-02-27T21:10:56.368Z,21.68
2019-02-27T21:13:39.835Z,29.70
2019-02-27T21:16:16.119Z,25.20
2019-02-27T21:19:02.665Z,28.00
2019-02-27T21:21:36.970Z,22.00
2019-02-27T21:24:13.475Z,25.80
2019-02-27T21:26:49.901Z,20.48
2019-02-27T21:29:26.048Z,25.48
2019-02-27T21:32:08.398Z,24.35
2019-02-27T21:34:45.743Z,21.17
2019-02-27T21:37:21.981Z,23.35
2019-02-27T21:40:04.849Z,19.98
2019-02-27T21:42:40.391Z,20.40
2019-02-27T21:45:43.913Z,19.62
2019-02-27T21:48:27.863Z,25.30
2019-02-27T21:51:03.568Z,23.05
2019-02-27T21:53:45.748Z,17.42
2019-02-27T21:56:28.195Z,18.50
2019-02-27T21:59:04.768Z,22.98
2019-02-27T22:01:42.097Z,22.42
2019-02-27T22:04:24.658Z,23.62
2019-02-27T22:07:00.837Z,24.07
2019-02-27T22:09:44.643Z,24.30
2019-02-27T22:15:08.227Z,25.12
2019-02-27T22:17:44.160Z,22.55
2019-02-27T22:20:27.702Z,21.17
2019-02-27T22:23:12.626Z,20.97
2019-02-27T22:28:29.286Z,21.93
2019-02-27T22:31:06.683Z,17.62
2019-02-27T22:33:50.007Z,21.70
2019-02-27T22:36:25.981Z,21.97
2019-02-27T22:39:07.847Z,22.37
2019-02-27T22:41:50.069Z,20.37
2019-02-27T22:44:33.356Z,18.70
2019-02-27T22:47:15.396Z,17.30
2019-02-27T22:49:51.205Z,21.00
2019-02-27T22:52:46.733Z,21.17
2019-02-27T22:55:23.706Z,22.22
2019-02-27T22:58:05.372Z,20.88
2019-02-27T23:00:56.109Z,19.32
2019-02-27T23:03:45.087Z,16.45
2019-02-27T23:06:34.622Z,17.40
2019-02-27T23:09:20.103Z,21.00
2019-02-27T23:11:55.970Z,21.30
2019-02-27T23:14:58.344Z,15.45
2019-02-27T23:17:40.844Z,17.25
2019-02-27T23:20:20.707Z,16.40
2019-02-27T23:23:02.626Z,19.40
2019-02-27T23:25:38.959Z,21.68
2019-02-27T23:28:21.679Z,19.23
2019-02-27T23:30:57.509Z,19.00
2019-02-27T23:33:36.640Z,17.77
2019-02-27T23:36:11.645Z,21.73
2019-02-27T23:38:41.158Z,20.02
2019-02-27T23:41:24.139Z,18.82
2019-02-27T23:44:06.703Z,18.98
2019-02-27T23:46:51.538Z,22.80
2019-02-27T23:49:27.037Z,20.10
2019-02-27T23:52:03.462Z,18.95
2019-02-27T23:54:46.520Z,21.35
2019-02-27T23:57:28.234Z,21.20
